createdAt,value
2018-05-27T00:03:06.240Z,52.50
2018-05-27T00:08:09.165Z,53.30
2018-05-27T00:13:11.939Z,53.70
2018-05-27T00:18:15.452Z,53.80
2018-05-27T00:23:19.036Z,53.00
2018-05-27T00:28:21.879Z,51.10
2018-05-27T00:33:24.541Z,50.00
2018-05-27T00:38:27.107Z,49.40
2018-05-27T00:43:29.840Z,48.40
2018-05-27T00:48:33.349Z,47.80
2018-05-27T00:53:47.628Z,47.80
2018-05-27T00:58:50.134Z,47.80
2018-05-27T01:03:52.754Z,48.00
2018-05-27T01:08:55.363Z,48.10
2018-05-27T01:13:58.050Z,48.00
2018-05-27T01:19:00.853Z,47.70
2018-05-27T01:24:03.734Z,47.70
2018-05-27T01:29:06.251Z,47.70
2018-05-27T01:34:09.166Z,47.60
2018-05-27T01:39:11.702Z,47.50
2018-05-27T01:44:14.296Z,47.40
2018-05-27T01:49:17.625Z,47.30
2018-05-27T01:54:20.591Z,47.30
2018-05-27T01:59:23.208Z,47.20
2018-05-27T02:04:25.767Z,47.20
2018-05-27T02:09:28.321Z,47.20
2018-05-27T02:14:30.843Z,47.70
2018-05-27T02:19:33.366Z,47.10
2018-05-27T02:24:36.083Z,47.00
2018-05-27T02:29:38.667Z,47.00
2018-05-27T02:34:41.197Z,47.00
2018-05-27T02:39:43.785Z,47.00
2018-05-27T02:44:46.484Z,46.90
2018-05-27T02:49:49.777Z,46.80
2018-05-27T02:54:52.299Z,46.80
2018-05-27T02:59:54.924Z,46.80
2018-05-27T03:04:57.666Z,46.70
2018-05-27T03:10:00.602Z,46.70
2018-05-27T03:15:03.158Z,46.70
2018-05-27T03:20:05.956Z,46.70
2018-05-27T03:25:08.784Z,46.70
2018-05-27T03:30:11.300Z,46.70
2018-05-27T03:35:13.932Z,46.80
2018-05-27T03:40:16.473Z,46.80
2018-05-27T03:45:19.112Z,46.90
2018-05-27T03:50:21.778Z,46.80
2018-05-27T03:55:24.317Z,46.90
2018-05-27T04:00:26.974Z,46.80
2018-05-27T04:05:41.334Z,46.80
2018-05-27T04:10:43.854Z,46.70
2018-05-27T04:15:47.088Z,46.70
2018-05-27T04:20:49.816Z,46.70
2018-05-27T04:25:52.374Z,46.70
2018-05-27T04:30:55.062Z,46.60
2018-05-27T04:35:57.597Z,46.50
2018-05-27T04:41:00.281Z,47.20
2018-05-27T04:46:02.892Z,46.50
2018-05-27T04:51:05.414Z,46.40
2018-05-27T04:56:09.631Z,46.20
2018-05-27T05:01:12.186Z,46.10
2018-05-27T05:06:15.133Z,46.00
2018-05-27T05:11:17.650Z,46.00
2018-05-27T05:16:20.167Z,46.00
2018-05-27T05:21:23.157Z,45.80
2018-05-27T05:26:25.686Z,45.70
2018-05-27T05:31:28.466Z,45.60
2018-05-27T05:36:31.144Z,45.50
2018-05-27T05:41:33.706Z,45.40
2018-05-27T05:46:37.127Z,45.20
2018-05-27T05:51:39.955Z,45.20
2018-05-27T05:56:42.491Z,45.00
2018-05-27T06:01:45.317Z,45.10
2018-05-27T06:06:48.203Z,44.90
2018-05-27T06:11:50.779Z,45.00
2018-05-27T06:16:53.302Z,44.80
2018-05-27T06:21:55.845Z,44.80
2018-05-27T06:26:58.489Z,44.70
2018-05-27T06:32:01.200Z,44.60
2018-05-27T06:37:04.106Z,44.60
2018-05-27T06:42:06.657Z,44.70
2018-05-27T06:47:09.256Z,44.50
2018-05-27T06:52:12.484Z,44.50
2018-05-27T06:57:15.009Z,44.40
2018-05-27T07:02:18.925Z,44.40
2018-05-27T07:07:21.482Z,44.30
2018-05-27T07:12:24.014Z,43.90
2018-05-27T07:17:26.553Z,44.30
2018-05-27T07:22:29.266Z,44.20
2018-05-27T07:27:31.926Z,44.20
2018-05-27T07:32:34.546Z,44.20
2018-05-27T07:37:37.183Z,44.00
2018-05-27T07:42:39.745Z,44.60
2018-05-27T07:47:42.474Z,43.10
2018-05-27T07:52:45.206Z,43.80
2018-05-27T07:57:48.619Z,44.80
2018-05-27T08:02:51.967Z,43.80
2018-05-27T08:07:54.523Z,43.80
2018-05-27T08:12:57.349Z,43.30
2018-05-27T08:17:59.904Z,43.20
2018-05-27T08:23:03.233Z,42.90
2018-05-27T08:28:06.553Z,42.70
2018-05-27T08:33:09.250Z,42.70
2018-05-27T08:38:11.801Z,42.90
2018-05-27T08:43:14.415Z,41.90
2018-05-27T08:48:17.101Z,42.30
2018-05-27T08:53:19.814Z,41.90
2018-05-27T08:58:22.509Z,41.80
2018-05-27T09:03:25.079Z,41.20
2018-05-27T09:08:28.229Z,41.20
2018-05-27T09:13:31.543Z,40.90
2018-05-27T09:18:34.125Z,40.90
2018-05-27T09:23:37.514Z,40.70
2018-05-27T09:28:40.575Z,41.50
2018-05-27T09:33:43.146Z,41.00
2018-05-27T09:38:45.748Z,41.00
2018-05-27T09:43:48.675Z,40.60
2018-05-27T09:48:52.028Z,40.30
2018-05-27T09:53:55.147Z,40.40
2018-05-27T09:58:57.745Z,40.50
2018-05-27T10:04:00.317Z,39.50
2018-05-27T10:09:02.852Z,39.60
2018-05-27T10:14:06.269Z,38.40
2018-05-27T10:19:08.901Z,37.80
2018-05-27T10:24:11.444Z,38.00
2018-05-27T10:29:14.151Z,38.10
2018-05-27T10:34:16.702Z,37.40
2018-05-27T10:39:19.260Z,37.40
2018-05-27T10:44:22.879Z,37.50
2018-05-27T10:49:26.230Z,37.80
2018-05-27T10:54:28.772Z,38.30
2018-05-27T10:59:31.440Z,36.30
2018-05-27T11:04:34.068Z,37.80
2018-05-27T11:09:37.397Z,36.60
2018-05-27T11:14:39.966Z,36.60
2018-05-27T11:19:42.507Z,36.70
2018-05-27T11:24:45.067Z,36.00
2018-05-27T11:29:47.778Z,36.60
2018-05-27T11:34:51.299Z,36.90
2018-05-27T11:39:53.887Z,37.30
2018-05-27T11:44:57.284Z,36.60
2018-05-27T11:49:59.863Z,36.60
2018-05-27T11:55:02.700Z,37.30
2018-05-27T12:00:05.620Z,37.20
2018-05-27T12:05:08.151Z,36.70
2018-05-27T12:10:10.771Z,36.50
2018-05-27T12:15:13.522Z,36.20
2018-05-27T12:20:16.104Z,36.70
2018-05-27T12:25:18.848Z,37.00
2018-05-27T12:30:21.553Z,37.40
2018-05-27T12:35:24.950Z,37.80
2018-05-27T12:40:27.669Z,37.20
2018-05-27T12:45:30.299Z,37.30
2018-05-27T12:50:32.886Z,37.10
2018-05-27T12:55:36.200Z,37.40
2018-05-27T13:00:38.902Z,37.30
2018-05-27T13:05:41.486Z,37.30
2018-05-27T13:10:45.207Z,38.20
2018-05-27T13:15:48.044Z,39.30
2018-05-27T13:20:50.605Z,40.10
2018-05-27T13:25:53.377Z,41.20
2018-05-27T13:30:56.176Z,41.80
2018-05-27T13:35:58.781Z,42.60
2018-05-27T13:41:01.440Z,42.00
2018-05-27T13:46:04.208Z,42.00
2018-05-27T13:51:08.459Z,41.90
2018-05-27T13:56:11.017Z,41.90
2018-05-27T14:01:13.572Z,41.80
2018-05-27T14:06:16.122Z,42.10
2018-05-27T14:11:18.713Z,42.00
2018-05-27T14:16:21.257Z,42.50
2018-05-27T14:21:23.882Z,42.70
2018-05-27T14:26:27.296Z,42.70
2018-05-27T14:31:29.868Z,41.60
2018-05-27T14:36:32.398Z,40.10
2018-05-27T14:41:34.942Z,40.30
2018-05-27T14:46:38.619Z,40.70
2018-05-27T14:51:41.971Z,38.80
2018-05-27T14:56:44.561Z,38.80
2018-05-27T15:01:47.139Z,39.00
2018-05-27T15:06:50.697Z,38.20
2018-05-27T15:11:53.349Z,38.20
2018-05-27T15:16:56.760Z,39.40
2018-05-27T15:21:59.665Z,39.30
2018-05-27T15:27:02.275Z,40.20
2018-05-27T15:32:04.988Z,40.20
2018-05-27T15:37:08.285Z,40.90
2018-05-27T15:42:10.936Z,41.30
2018-05-27T15:47:14.037Z,41.40
2018-05-27T15:52:16.785Z,41.30
2018-05-27T15:57:19.494Z,41.80
2018-05-27T16:02:22.242Z,41.80
2018-05-27T16:07:24.867Z,41.80
2018-05-27T16:12:28.222Z,42.10
2018-05-27T16:17:30.899Z,42.10
2018-05-27T16:22:33.507Z,42.10
2018-05-27T16:27:36.090Z,41.60
2018-05-27T16:32:38.789Z,41.60
2018-05-27T16:37:41.442Z,42.00
2018-05-27T16:42:44.475Z,42.30
2018-05-27T16:47:47.932Z,43.00
2018-05-27T16:52:51.558Z,43.00
2018-05-27T16:57:54.289Z,43.70
2018-05-27T17:02:56.859Z,43.60
2018-05-27T17:07:59.915Z,43.80
2018-05-27T17:13:02.575Z,43.20
2018-05-27T17:18:05.146Z,43.30
2018-05-27T17:23:07.820Z,43.40
2018-05-27T17:28:10.430Z,43.10
2018-05-27T17:33:13.144Z,43.00
2018-05-27T17:38:15.829Z,43.00
2018-05-27T17:43:19.208Z,42.60
2018-05-27T17:48:21.936Z,42.60
2018-05-27T17:53:24.810Z,42.70
2018-05-27T17:58:27.399Z,42.80
2018-05-27T18:03:30.709Z,43.00
2018-05-27T18:08:33.376Z,43.00
2018-05-27T18:13:36.153Z,43.20
2018-05-27T18:18:38.824Z,44.00
2018-05-27T18:23:41.509Z,43.40
2018-05-27T18:28:44.202Z,43.60
2018-05-27T18:33:46.809Z,44.00
2018-05-27T18:38:49.421Z,44.50
2018-05-27T18:43:52.441Z,44.50
2018-05-27T18:48:55.087Z,44.60
2018-05-27T18:53:57.820Z,45.00
2018-05-27T18:59:00.551Z,45.10
2018-05-27T19:04:04.051Z,45.30
2018-05-27T19:09:06.884Z,45.50
2018-05-27T19:14:09.473Z,45.10
2018-05-27T19:19:12.284Z,45.50
2018-05-27T19:24:16.121Z,45.90
2018-05-27T19:29:19.455Z,46.80
2018-05-27T19:34:22.200Z,46.80
2018-05-27T19:39:25.683Z,46.90
2018-05-27T19:44:28.284Z,47.10
2018-05-27T19:49:31.045Z,47.20
2018-05-27T19:54:34.445Z,46.90
2018-05-27T19:59:38.514Z,47.40
2018-05-27T20:04:41.588Z,46.90
2018-05-27T20:09:44.228Z,46.90
2018-05-27T20:14:46.792Z,47.50
2018-05-27T20:19:50.079Z,48.80
2018-05-27T20:24:52.803Z,48.70
2018-05-27T20:29:55.414Z,49.00
2018-05-27T20:34:58.451Z,48.90
2018-05-27T20:40:01.023Z,48.40
2018-05-27T20:45:04.139Z,47.90
2018-05-27T20:50:06.639Z,47.60
2018-05-27T20:55:09.209Z,47.40
2018-05-27T21:00:11.769Z,47.10
2018-05-27T21:05:14.307Z,47.40
2018-05-27T21:10:16.974Z,47.40
2018-05-27T21:15:21.227Z,47.00
2018-05-27T21:20:24.000Z,46.90
2018-05-27T21:25:26.683Z,47.30
2018-05-27T21:30:29.251Z,47.00
2018-05-27T21:35:32.119Z,46.40
2018-05-27T21:40:34.699Z,46.40
2018-05-27T21:45:38.035Z,46.40
2018-05-27T21:50:40.815Z,46.40
2018-05-27T21:55:43.702Z,46.40
2018-05-27T22:00:48.154Z,46.60
2018-05-27T22:05:50.783Z,46.60
2018-05-27T22:10:53.399Z,46.80
2018-05-27T22:15:55.953Z,46.70
2018-05-27T22:20:58.495Z,47.20
2018-05-27T22:26:01.220Z,49.80
2018-05-27T22:31:03.791Z,50.40
2018-05-27T22:36:07.656Z,49.40
2018-05-27T22:41:10.250Z,48.60
2018-05-27T22:46:13.084Z,48.50
2018-05-27T22:51:15.720Z,48.70
2018-05-27T22:56:18.424Z,48.50
2018-05-27T23:01:21.011Z,48.40
2018-05-27T23:06:23.622Z,48.50
2018-05-27T23:11:26.936Z,48.80
2018-05-27T23:16:29.702Z,48.80
2018-05-27T23:21:32.279Z,49.70
2018-05-27T23:26:34.842Z,50.80
2018-05-27T23:31:37.400Z,49.70
2018-05-27T23:36:40.315Z,48.70
2018-05-27T23:41:43.022Z,48.10
2018-05-27T23:46:45.607Z,47.90
2018-05-27T23:51:48.945Z,47.60
2018-05-27T23:56:51.675Z,47.60
